Time;durP1;ratioP1;P1;durP2;ratioP2;P2;SDS_P1;SDS_P2;PMS_P1;PMS_P2;Temp;Humidity;BMP_temperature;BMP_pressure;BME280_temperature;BME280_humidity;BME280_pressure;Samples;Min_cycle;Max_cycle;Signal;HPM_P1;HPM_P2
2023/02/01 00:00:08;;;;;;;0.60;0.60;;;;;;;1.99;92.47;97552.47;29373;257;63005;-57
2023/02/01 00:00:41;;;;;;;0.60;0.60;;;;;;;1.98;92.71;97543.62;29373;348;63009;-58
2023/02/01 00:01:12;;;;;;;0.70;0.70;;;;;;;2.03;92.83;97550.19;29373;202;63004;-67
2023/02/01 00:01:45;;;;;;;0.60;0.60;;;;;;;2.03;92.53;97547.50;29395;227;63009;-72
2023/02/01 00:02:17;;;;;;;0.60;0.60;;;;;;;2.00;92.45;97556.78;29373;202;63004;-58
2023/02/01 00:02:48;;;;;;;0.60;0.60;;;;;;;2.05;92.52;97545.44;29395;215;63009;-69
2023/02/01 00:03:20;;;;;;;0.75;0.75;;;;;;;2.09;92.16;97549.25;29373;218;63004;-57
2023/02/01 00:03:51;;;;;;;0.60;0.60;;;;;;;2.11;91.99;97547.19;29395;262;63008;-57
2023/02/01 00:04:22;;;;;;;7.80;1.50;;;;;;;2.13;92.17;97550.47;29371;245;64009;-59
2023/02/01 00:04:54;;;;;;;0.60;0.60;;;;;;;2.18;91.62;97558.66;29373;204;63009;-57
2023/02/01 00:05:25;;;;;;;0.70;0.70;;;;;;;2.17;91.75;97548.97;29395;223;63005;-58
2023/02/01 00:05:58;;;;;;;0.60;0.60;;;;;;;2.12;91.73;97548.81;29373;302;63009;-59
2023/02/01 00:06:29;;;;;;;0.60;0.60;;;;;;;2.09;91.93;97551.94;29373;200;63005;-57
2023/02/01 00:07:01;;;;;;;0.60;0.60;;;;;;;2.06;92.41;97552.41;29373;217;63009;-57
2023/02/01 00:07:32;;;;;;;0.80;0.80;;;;;;;2.07;92.33;97546.84;29395;258;63005;-57
2023/02/01 00:08:05;;;;;;;0.65;0.65;;;;;;;2.08;92.23;97539.63;29395;210;63009;-57
2023/02/01 00:08:36;;;;;;;0.60;0.60;;;;;;;2.07;91.89;97546.03;29395;215;63004;-72
2023/02/01 00:09:08;;;;;;;0.60;0.60;;;;;;;2.03;92.29;97552.84;29371;212;64013;-57
2023/02/01 00:09:39;;;;;;;0.60;0.60;;;;;;;1.99;92.48;97555.97;29395;224;63004;-57
2023/02/01 00:10:11;;;;;;;0.60;0.60;;;;;;;1.95;92.87;97554.78;29395;314;63009;-57
2023/02/01 00:10:43;;;;;;;0.60;0.60;;;;;;;1.93;92.69;97554.19;29395;202;63004;-58
2023/02/01 00:11:15;;;;;;;0.60;0.60;;;;;;;1.95;92.93;97546.75;29395;203;63008;-58
2023/02/01 00:11:46;;;;;;;0.70;0.70;;;;;;;2.04;92.72;97547.28;29395;204;63005;-66
2023/02/01 00:12:17;;;;;;;0.70;0.70;;;;;;;2.10;92.36;97540.19;29395;216;63009;-57
2023/02/01 00:12:49;;;;;;;0.75;0.75;;;;;;;2.13;92.27;97545.09;29395;227;63005;-57
2023/02/01 00:13:20;;;;;;;0.60;0.60;;;;;;;2.11;92.30;97541.84;29395;227;63009;-59
2023/02/01 00:13:53;;;;;;;0.60;0.60;;;;;;;2.20;91.73;97535.97;29395;227;63005;-57
2023/02/01 00:14:24;;;;;;;0.60;0.60;;;;;;;2.18;91.31;97537.22;29394;207;64013;-57
2023/02/01 00:14:56;;;;;;;0.60;0.60;;;;;;;2.16;91.43;97528.59;29395;236;63005;-57
2023/02/01 00:15:28;;;;;;;0.60;0.60;;;;;;;2.17;91.59;97531.06;29395;199;63009;-57
2023/02/01 00:16:08;;;;;;;0.95;0.95;;;;;;;2.19;91.50;97533.50;29395;199;63004;-57
2023/02/01 00:16:40;;;;;;;0.70;0.70;;;;;;;2.18;91.73;97529.19;29415;248;64013;-57
2023/02/01 00:17:11;;;;;;;0.60;0.60;;;;;;;2.19;91.61;97528.16;29373;219;63004;-57
2023/02/01 00:17:45;;;;;;;0.57;0.57;;;;;;;2.18;91.59;97526.53;29373;317;63009;-69
2023/02/01 00:18:16;;;;;;;2.47;0.88;;;;;;;2.21;91.65;97532.25;29373;306;63004;-57
2023/02/01 00:18:51;;;;;;;0.60;0.60;;;;;;;2.23;91.27;97529.34;29373;266;63008;-58
2023/02/01 00:19:23;;;;;;;0.60;0.60;;;;;;;2.27;91.37;97519.81;29373;198;63005;-60
2023/02/01 00:19:55;;;;;;;0.55;0.55;;;;;;;2.28;90.87;97532.16;29373;198;63021;-58
2023/02/01 00:20:27;;;;;;;0.60;0.60;;;;;;;2.29;91.18;97528.47;29373;199;63005;-60
2023/02/01 00:20:58;;;;;;;3.10;1.48;;;;;;;2.31;90.68;97526.38;29373;226;63009;-57
2023/02/01 00:21:32;;;;;;;0.60;0.60;;;;;;;2.31;90.84;97526.38;29373;312;63005;-72
2023/02/01 00:22:03;;;;;;;0.60;0.60;;;;;;;2.25;90.80;97527.25;29371;203;64013;-57
2023/02/01 00:22:34;;;;;;;0.60;0.60;;;;;;;2.18;91.29;97531.87;29373;268;63005;-58
2023/02/01 00:23:07;;;;;;;0.60;0.60;;;;;;;2.15;91.29;97526.97;29373;233;63027;-58
2023/02/01 00:23:38;;;;;;;0.60;0.60;;;;;;;2.13;91.76;97532.53;29373;235;63004;-58
2023/02/01 00:24:11;;;;;;;0.80;0.80;;;;;;;2.23;91.49;97529.34;29373;285;63009;-57
2023/02/01 00:24:42;;;;;;;0.70;0.70;;;;;;;2.25;91.02;97529.94;29373;248;63004;-57
2023/02/01 00:25:13;;;;;;;0.60;0.60;;;;;;;2.19;91.18;97528.16;29395;247;63009;-57
2023/02/01 00:25:45;;;;;;;0.60;0.60;;;;;;;2.14;91.21;97526.16;29373;210;63004;-57
2023/02/01 00:26:25;;;;;;;0.60;0.60;;;;;;;2.12;91.47;97527.41;29373;234;63008;-57
2023/02/01 00:26:56;;;;;;;0.60;0.60;;;;;;;2.08;91.55;97527.03;29416;211;64009;-57
2023/02/01 00:27:29;;;;;;;0.60;0.60;;;;;;;2.05;91.98;97527.50;29395;231;63009;-58
2023/02/01 00:28:00;;;;;;;0.85;0.85;;;;;;;2.18;91.81;97531.87;29373;197;63005;-58
2023/02/01 00:28:33;;;;;;;0.60;0.60;;;;;;;2.15;91.51;97529.63;29373;210;63009;-57
2023/02/01 00:29:13;;;;;;;0.60;0.60;;;;;;;2.13;91.82;97534.41;29373;236;63020;-57
2023/02/01 00:29:47;;;;;;;0.60;0.60;;;;;;;2.08;91.59;97532.37;29373;307;63009;-57
2023/02/01 00:30:19;;;;;;;0.60;0.60;;;;;;;2.05;91.70;97526.69;29373;203;63000;-57
2023/02/01 00:30:57;;;;;;;0.60;0.60;;;;;;;2.00;91.97;97532.72;29373;227;63023;-65
2023/02/01 00:31:29;;;;;;;0.60;0.60;;;;;;;2.04;92.22;97528.53;29373;247;63004;-57
2023/02/01 00:32:00;;;;;;;0.60;0.60;;;;;;;2.05;92.22;97532.03;29371;227;64021;-67
2023/02/01 00:32:32;;;;;;;0.60;0.60;;;;;;;2.00;92.07;97524.69;29395;231;63004;-57
2023/02/01 00:33:06;;;;;;;1.25;1.25;;;;;;;2.04;92.22;97536.56;29373;257;63008;-57
2023/02/01 00:33:38;;;;;;;0.60;0.60;;;;;;;2.04;92.10;97525.88;29373;199;63004;-57
2023/02/01 00:34:13;;;;;;;0.60;0.60;;;;;;;2.00;92.29;97530.84;29373;230;63008;-57
2023/02/01 00:34:45;;;;;;;0.60;0.60;;;;;;;2.00;92.50;97528.16;29395;203;63012;-57
2023/02/01 00:35:16;;;;;;;0.50;0.50;;;;;;;2.07;92.52;97524.59;29395;202;63021;-57
2023/02/01 00:35:47;;;;;;;0.60;0.60;;;;;;;2.10;92.04;97529.50;29373;202;63005;-67
2023/02/01 00:36:19;;;;;;;0.70;0.70;;;;;;;2.06;91.92;97526.47;29373;220;63009;-57
2023/02/01 00:36:52;;;;;;;0.60;0.60;;;;;;;2.04;92.04;97527.72;29373;204;63005;-57
2023/02/01 00:37:24;;;;;;;0.60;0.60;;;;;;;2.03;92.18;97528.78;29371;227;64013;-68
2023/02/01 00:37:58;;;;;;;0.80;0.80;;;;;;;2.00;92.36;97522.00;29395;245;63004;-57
2023/02/01 00:38:30;;;;;;;0.60;0.60;;;;;;;2.00;92.43;97530.84;29373;232;63009;-57
2023/02/01 00:39:02;;;;;;;0.60;0.60;;;;;;;1.98;92.81;97524.91;29395;207;63004;-56
2023/02/01 00:39:33;;;;;;;0.60;0.60;;;;;;;1.97;92.42;97520.59;29373;245;63009;-57
2023/02/01 00:40:06;;;;;;;0.60;0.60;;;;;;;1.98;92.42;97521.41;29373;262;63004;-56
2023/02/01 00:40:37;;;;;;;0.60;0.60;;;;;;;1.99;92.43;97515.81;29394;205;64013;-56
2023/02/01 00:41:20;;;;;;;0.60;0.60;;;;;;;2.00;92.42;97514.78;29395;289;63005;-57
2023/02/01 00:41:52;;;;;;;0.60;0.60;;;;;;;2.01;92.67;97516.44;29395;226;63009;-56
2023/02/01 00:42:23;;;;;;;0.60;0.60;;;;;;;2.00;92.29;97525.50;29371;211;64009;-57
2023/02/01 00:42:57;;;;;;;0.93;0.93;;;;;;;2.11;92.36;97515.06;29394;240;64013;-59
2023/02/01 00:43:28;;;;;;;0.60;0.60;;;;;;;2.19;91.70;97520.12;29373;294;63005;-60
2023/02/01 00:43:59;;;;;;;0.70;0.70;;;;;;;2.27;91.37;97526.00;29373;225;63009;-57
2023/02/01 00:44:32;;;;;;;0.98;0.98;;;;;;;2.27;91.01;97515.28;29373;197;63005;-56
2023/02/01 00:45:05;;;;;;;0.60;0.60;;;;;;;2.27;90.86;97514.47;29395;240;63009;-56
2023/02/01 00:45:36;;;;;;;0.60;0.60;;;;;;;2.19;91.00;97518.25;29373;214;63004;-58
2023/02/01 00:46:09;;;;;;;0.60;0.60;;;;;;;2.10;91.45;97518.78;29373;213;63009;-57
2023/02/01 00:46:40;;;;;;;1.45;1.45;;;;;;;2.05;91.95;97514.13;29395;235;63004;-56
2023/02/01 00:47:11;;;;;;;2.58;1.48;;;;;;;2.05;91.99;97513.31;29373;215;63009;-57
2023/02/01 00:47:43;;;;;;;0.60;0.60;;;;;;;2.01;92.29;97521.78;29394;213;64009;-56
2023/02/01 00:48:15;;;;;;;0.60;0.60;;;;;;;2.00;92.20;97517.47;29394;228;64013;-57
2023/02/01 00:48:47;;;;;;;0.60;0.60;;;;;;;2.05;92.26;97522.16;29373;362;63005;-57
2023/02/01 00:49:18;;;;;;;0.60;0.60;;;;;;;2.05;92.09;97518.66;29373;338;63017;-56
2023/02/01 00:49:50;;;;;;;0.60;0.60;;;;;;;2.04;92.10;97520.53;29373;325;63005;-57
2023/02/01 00:50:24;;;;;;;0.60;0.60;;;;;;;2.04;92.19;97514.34;29373;206;63009;-57
2023/02/01 00:51:00;;;;;;;0.60;0.60;;;;;;;2.00;92.21;97517.47;29395;214;63005;-57
2023/02/01 00:51:31;;;;;;;0.60;0.60;;;;;;;1.98;92.36;97522.22;29373;221;63009;-70
2023/02/01 00:52:03;;;;;;;0.60;0.60;;;;;;;1.98;92.24;97524.09;29373;213;63005;-56
2023/02/01 00:52:35;;;;;;;0.60;0.60;;;;;;;2.07;92.50;97516.56;29373;199;63014;-69
2023/02/01 00:53:09;;;;;;;0.60;0.60;;;;;;;2.08;92.35;97516.31;29371;332;64020;-68
2023/02/01 00:53:41;;;;;;;0.60;0.60;;;;;;;2.12;91.92;97519.38;29373;199;63009;-74
2023/02/01 00:54:12;;;;;;;0.60;0.60;;;;;;;2.10;91.79;97524.13;29373;263;63004;-72
2023/02/01 00:54:43;;;;;;;0.60;0.60;;;;;;;2.09;91.85;97514.47;29373;197;63018;-70
2023/02/01 00:55:15;;;;;;;0.60;0.60;;;;;;;2.07;92.27;97519.25;29395;213;63004;-56
2023/02/01 00:55:47;;;;;;;0.70;0.70;;;;;;;2.08;92.56;97520.91;29373;236;63008;-74
2023/02/01 00:56:19;;;;;;;0.60;0.60;;;;;;;2.10;92.20;97519.59;29373;200;63005;-66
2023/02/01 00:56:50;;;;;;;2.87;2.78;;;;;;;2.09;92.13;97517.16;29395;289;63009;-69
2023/02/01 00:57:23;;;;;;;0.60;0.60;;;;;;;2.05;92.40;97510.63;29395;242;63005;-56
2023/02/01 00:57:54;;;;;;;0.60;0.60;;;;;;;2.01;92.01;97511.06;29395;212;63009;-56
2023/02/01 00:58:26;;;;;;;0.60;0.60;;;;;;;1.99;92.47;97506.97;29394;208;64009;-57
2023/02/01 00:58:58;;;;;;;0.60;0.60;;;;;;;2.00;92.38;97509.44;29395;210;63014;-56
2023/02/01 00:59:29;;;;;;;0.60;0.60;;;;;;;2.00;92.45;97504.09;29395;241;63005;-56
2023/02/01 01:00:00;;;;;;;0.60;0.60;;;;;;;2.03;92.71;97510.03;29395;220;63009;-58
2023/02/01 01:00:33;;;;;;;0.60;0.60;;;;;;;2.08;92.28;97505.62;29371;220;64009;-56
2023/02/01 01:01:16;;;;;;;0.60;0.60;;;;;;;2.11;92.30;97504.34;29373;202;63009;-56
2023/02/01 01:01:48;;;;;;;0.60;0.60;;;;;;;2.10;91.86;97516.09;29395;199;63004;-60
2023/02/01 01:02:29;;;;;;;0.60;0.60;;;;;;;2.17;91.54;97511.50;29373;199;63009;-56
2023/02/01 01:03:01;;;;;;;0.60;0.60;;;;;;;2.13;91.42;97512.97;29373;278;63004;-56
2023/02/01 01:03:35;;;;;;;0.60;0.60;;;;;;;2.08;91.72;97510.97;29373;220;63004;-60
2023/02/01 01:04:10;;;;;;;0.60;0.60;;;;;;;2.10;92.24;97516.09;29371;215;63996;-57
2023/02/01 01:04:41;;;;;;;0.60;0.60;;;;;;;2.10;92.13;97511.56;29373;198;63009;-69
2023/02/01 01:05:12;;;;;;;0.60;0.60;;;;;;;2.15;91.66;97511.72;29372;261;63005;-57
2023/02/01 01:05:46;;;;;;;0.60;0.60;;;;;;;2.17;91.90;97514.16;29373;218;63015;-57
2023/02/01 01:06:22;;;;;;;0.60;0.60;;;;;;;2.13;91.28;97503.09;29373;226;63005;-56
2023/02/01 01:06:53;;;;;;;0.60;0.60;;;;;;;2.09;91.95;97509.13;29373;238;63015;-56
2023/02/01 01:07:24;;;;;;;0.60;0.60;;;;;;;2.04;91.66;97512.50;29395;243;63005;-56
2023/02/01 01:19:30;;;;;;;0.66;0.66;;;;;;;2.10;91.68;97502.72;88122;233;64004;-56
2023/02/01 01:20:02;;;;;;;0.60;0.60;;;;;;;2.05;92.01;97494.56;29394;261;64009;-57
2023/02/01 01:20:36;;;;;;;0.60;0.60;;;;;;;2.00;92.30;97496.06;29395;235;63014;-56
2023/02/01 01:21:09;;;;;;;0.60;0.60;;;;;;;2.02;92.58;97490.47;29373;370;63009;-56
2023/02/01 01:21:40;;;;;;;0.68;0.68;;;;;;;2.09;92.27;97485.03;29373;270;63014;-56
2023/02/01 01:22:12;;;;;;;1.00;1.00;;;;;;;2.12;92.07;97501.47;29373;316;63009;-56
2023/02/01 01:22:43;;;;;;;0.60;0.60;;;;;;;2.13;92.07;97491.56;29371;279;64009;-56
2023/02/01 01:23:14;;;;;;;0.60;0.60;;;;;;;2.07;92.26;97497.84;29373;305;63009;-56
2023/02/01 01:23:47;;;;;;;0.60;0.60;;;;;;;1.99;92.40;97497.09;29373;313;63004;-57
2023/02/01 01:24:18;;;;;;;0.60;0.60;;;;;;;1.97;92.74;97495.69;29373;273;63014;-67
2023/02/01 01:24:50;;;;;;;0.60;0.60;;;;;;;2.04;92.71;97492.94;29373;216;63001;-56
2023/02/01 01:25:21;;;;;;;0.60;0.60;;;;;;;2.03;92.40;97488.63;29373;229;63009;-71
2023/02/01 01:25:52;;;;;;;0.57;0.57;;;;;;;2.04;92.16;97487.56;29373;276;63005;-56
2023/02/01 01:26:26;;;;;;;0.60;0.60;;;;;;;2.05;92.19;97494.56;29373;197;63009;-56
2023/02/01 01:26:57;;;;;;;0.60;0.60;;;;;;;2.03;92.12;97496.66;29373;205;63005;-56
2023/02/01 01:27:28;;;;;;;0.60;0.60;;;;;;;2.01;92.37;97494.19;29373;212;63009;-56
2023/02/01 01:28:00;;;;;;;0.60;0.60;;;;;;;2.04;92.20;97492.94;29371;209;64009;-56
2023/02/01 01:28:32;;;;;;;0.60;0.60;;;;;;;2.09;92.26;97496.53;29373;202;63009;-70
2023/02/01 01:29:04;;;;;;;0.60;0.60;;;;;;;2.07;91.87;97495.16;29373;243;63004;-68
2023/02/01 01:29:36;;;;;;;0.60;0.60;;;;;;;2.08;91.80;97488.78;29373;267;63023;-56
2023/02/01 01:30:08;;;;;;;0.70;0.70;;;;;;;2.06;91.74;97485.50;29373;280;63006;-55
2023/02/01 01:30:40;;;;;;;0.60;0.60;;;;;;;2.14;91.83;97490.53;29395;204;63009;-64
2023/02/01 01:31:13;;;;;;;0.60;0.60;;;;;;;2.15;91.32;97494.84;29373;196;63004;-57
2023/02/01 01:31:45;;;;;;;0.60;0.60;;;;;;;2.14;91.21;97495.88;29395;264;63008;-55
2023/02/01 01:32:16;;;;;;;0.60;0.60;;;;;;;2.13;91.28;97499.59;29373;205;63005;-57
2023/02/01 01:32:48;;;;;;;0.60;0.60;;;;;;;2.13;91.25;97500.41;29395;220;63009;-57
2023/02/01 01:33:19;;;;;;;0.60;0.60;;;;;;;2.13;91.31;97499.59;29394;234;64009;-68
2023/02/01 01:33:55;;;;;;;0.60;0.60;;;;;;;2.09;91.50;97511.78;29373;286;63009;-56
2023/02/01 01:34:26;;;;;;;0.60;0.60;;;;;;;2.16;91.61;97504.50;29371;297;64009;-67
2023/02/01 01:34:58;;;;;;;0.60;0.60;;;;;;;2.13;91.35;97512.97;29371;240;64013;-56
2023/02/01 01:35:31;;;;;;;0.60;0.60;;;;;;;2.09;91.33;97511.78;29373;198;63005;-56
2023/02/01 01:36:10;;;;;;;0.57;0.57;;;;;;;2.06;91.30;97507.72;29373;223;63009;-69
2023/02/01 01:36:42;;;;;;;0.60;0.60;;;;;;;2.04;91.69;97509.00;29373;249;63004;-56
2023/02/01 01:37:14;;;;;;;0.60;0.60;;;;;;;2.11;91.95;97512.38;29373;266;63009;-71
2023/02/01 01:37:45;;;;;;;0.60;0.60;;;;;;;2.11;91.65;97509.72;29373;202;63004;-64
2023/02/01 01:38:16;;;;;;;0.60;0.60;;;;;;;2.13;91.54;97507.63;29373;292;63009;-56
2023/02/01 01:38:47;;;;;;;0.60;0.60;;;;;;;2.10;91.43;97500.03;29373;232;63004;-56
2023/02/01 01:39:19;;;;;;;0.60;0.60;;;;;;;2.08;91.28;97508.28;29373;216;63018;-71
2023/02/01 01:39:50;;;;;;;0.60;0.60;;;;;;;2.04;91.69;97503.63;29373;223;63005;-57
2023/02/01 01:40:22;;;;;;;0.70;0.70;;;;;;;2.05;92.08;97507.94;29371;307;64014;-60
2023/02/01 01:40:53;;;;;;;0.60;0.60;;;;;;;2.09;91.81;97507.25;29373;214;63005;-70
2023/02/01 01:41:29;;;;;;;0.60;0.60;;;;;;;2.10;91.78;97497.38;29373;317;63009;-56
2023/02/01 01:42:01;;;;;;;0.60;0.60;;;;;;;2.14;91.52;97498.56;29395;197;63005;-55
2023/02/01 01:42:38;;;;;;;0.60;0.60;;;;;;;2.12;91.36;97500.63;29373;281;63009;-56
2023/02/01 01:43:14;;;;;;;0.60;0.60;;;;;;;2.10;91.32;97497.38;29395;202;63015;-56
2023/02/01 01:44:07;;;;;;;0.60;0.60;;;;;;;2.05;91.57;97494.56;29373;355;63013;-56
2023/02/01 01:44:59;;;;;;;0.60;0.60;;;;;;;2.03;91.96;97502.81;29371;301;64009;-56
2023/02/01 01:45:33;;;;;;;0.60;0.60;;;;;;;2.03;91.94;97497.47;29395;243;63004;-58
2023/02/01 01:46:04;;;;;;;0.60;0.60;;;;;;;2.07;92.01;97495.97;29395;285;63009;-69
2023/02/01 01:46:40;;;;;;;0.60;0.60;;;;;;;2.12;91.94;97497.97;29373;283;63004;-70
2023/02/01 01:47:12;;;;;;;0.60;0.60;;;;;;;2.14;91.83;97493.19;29373;197;63009;-56
2023/02/01 01:47:49;;;;;;;0.60;0.60;;;;;;;2.13;91.79;97494.25;29373;240;63005;-56
2023/02/01 01:48:30;;;;;;;0.60;0.60;;;;;;;2.13;91.69;97496.91;29373;342;63009;-70
2023/02/01 01:49:17;;;;;;;0.60;0.60;;;;;;;2.09;91.58;97490.38;29395;221;63005;-68
2023/02/01 01:49:49;;;;;;;0.60;0.60;;;;;;;2.04;92.13;97493.75;29394;328;64013;-73
2023/02/01 01:50:31;;;;;;;0.60;0.60;;;;;;;2.00;92.24;97488.03;29373;198;63005;-56
2023/02/01 01:51:10;;;;;;;0.60;0.60;;;;;;;1.99;92.44;97486.37;29373;215;63009;-56
2023/02/01 01:51:48;;;;;;;0.60;0.60;;;;;;;2.08;92.34;97486.09;29373;323;63004;-67
2023/02/01 01:52:20;;;;;;;0.60;0.60;;;;;;;2.09;92.05;97483.16;29373;286;63009;-57
2023/02/01 01:52:55;;;;;;;0.60;0.60;;;;;;;2.10;91.94;97486.66;29373;339;63004;-57
2023/02/01 01:53:33;;;;;;;0.60;0.60;;;;;;;2.12;91.62;97484.56;29373;217;63009;-56
2023/02/01 01:54:17;;;;;;;0.60;0.60;;;;;;;2.14;91.61;97485.16;29371;240;64008;-58
2023/02/01 01:54:51;;;;;;;0.60;0.60;;;;;;;2.08;91.87;97486.09;29373;220;63009;-56
2023/02/01 01:55:26;;;;;;;0.60;0.60;;;;;;;2.06;91.91;97485.50;29373;209;63005;-56
2023/02/01 01:55:57;;;;;;;0.50;0.50;;;;;;;2.01;92.13;97481.62;29395;283;63009;-56
2023/02/01 01:56:32;;;;;;;0.60;0.60;;;;;;;1.99;92.43;97481.03;29373;234;63012;-68
2023/02/01 01:57:11;;;;;;;0.60;0.60;;;;;;;1.94;92.63;97483.56;29395;246;63009;-56
2023/02/01 01:57:50;;;;;;;0.52;0.52;;;;;;;1.95;92.76;97479.84;29439;253;63005;-56
2023/02/01 01:58:26;;;;;;;0.60;0.60;;;;;;;1.97;92.89;97480.44;29373;238;63009;-56
2023/02/01 01:58:58;;;;;;;0.60;0.60;;;;;;;1.96;92.78;97476.13;29395;216;63004;-56
2023/02/01 01:59:32;;;;;;;0.60;0.60;;;;;;;1.96;92.82;97486.84;29394;265;64013;-56
2023/02/01 02:00:13;;;;;;;0.60;0.60;;;;;;;1.97;92.69;97476.94;29394;197;64009;-70
2023/02/01 02:00:46;;;;;;;0.60;0.60;;;;;;;1.97;92.89;97477.75;29417;218;63009;-67
2023/02/01 02:01:17;;;;;;;0.60;0.60;;;;;;;1.96;92.94;97476.13;29395;221;63004;-57
2023/02/01 02:01:48;;;;;;;0.60;0.60;;;;;;;1.97;93.01;97476.94;29395;237;63016;-56
2023/02/01 02:02:20;;;;;;;0.60;0.60;;;;;;;1.95;93.06;97477.16;29395;246;63005;-56
2023/02/01 02:02:58;;;;;;;0.60;0.60;;;;;;;1.97;93.07;97471.59;29395;203;63009;-56
2023/02/01 02:03:39;;;;;;;0.60;0.60;;;;;;;1.95;93.27;97479.84;29394;206;64005;-57
2023/02/01 02:04:10;;;;;;;0.60;0.60;;;;;;;1.96;92.97;97477.97;29417;392;63009;-56
2023/02/01 02:04:42;;;;;;;0.60;0.60;;;;;;;1.96;93.08;97473.44;29395;214;63005;-57
2023/02/01 02:05:15;;;;;;;0.60;0.60;;;;;;;1.97;92.90;97477.75;29371;340;64013;-56
2023/02/01 02:05:50;;;;;;;0.60;0.60;;;;;;;1.96;92.79;97476.13;29373;269;63005;-56
2023/02/01 02:07:03;;;;;;;0.60;0.60;;;;;;;1.97;92.95;97472.41;29395;273;63009;-56
2023/02/01 02:07:39;;;;;;;0.60;0.60;;;;;;;1.98;92.75;97468.69;29373;211;63004;-56
2023/02/01 02:08:11;;;;;;;0.60;0.60;;;;;;;1.96;92.81;97468.09;29373;226;63020;-56
2023/02/01 02:08:42;;;;;;;0.60;0.60;;;;;;;1.96;93.00;97470.78;29395;255;63004;-56
2023/02/01 02:09:15;;;;;;;0.60;0.60;;;;;;;1.96;92.85;97460.06;29373;246;63008;-56
2023/02/01 02:09:46;;;;;;;0.60;0.60;;;;;;;1.98;92.88;97468.69;29373;228;63016;-56
2023/02/01 02:10:18;;;;;;;0.60;0.60;;;;;;;1.98;92.99;97475.91;29394;239;64014;-56
2023/02/01 02:10:59;;;;;;;0.60;0.60;;;;;;;1.98;92.79;97471.37;29395;266;63005;-68
2023/02/01 02:11:31;;;;;;;0.60;0.60;;;;;;;2.00;92.87;97476.50;29373;313;63009;-68
2023/02/01 02:12:03;;;;;;;0.60;0.60;;;;;;;2.00;92.73;97471.16;29373;239;63005;-57
2023/02/01 02:12:37;;;;;;;0.60;0.60;;;;;;;2.03;92.94;97475.25;29395;197;63009;-57
2023/02/01 02:13:10;;;;;;;0.60;0.60;;;;;;;2.01;92.88;97472.78;29371;196;64009;-57
2023/02/01 02:13:45;;;;;;;0.60;0.60;;;;;;;2.04;92.60;97476.88;29395;241;63009;-55
2023/02/01 02:14:22;;;;;;;0.60;0.60;;;;;;;2.01;92.67;97465.56;29373;235;63004;-57
2023/02/01 02:14:54;;;;;;;0.60;0.60;;;;;;;1.99;92.58;97473.00;29395;197;63009;-56
2023/02/01 02:15:26;;;;;;;0.60;0.60;;;;;;;1.98;92.70;97476.72;29371;229;64009;-56
2023/02/01 02:16:26;;;;;;;0.60;0.60;;;;;;;1.96;92.93;97476.13;29371;216;64013;-57
2023/02/01 02:17:31;;;;;;;0.70;0.70;;;;;;;2.00;92.86;97471.97;29371;213;64008;-56
2023/02/01 02:18:16;;;;;;;0.60;0.60;;;;;;;1.96;93.28;97473.44;29373;220;63009;-56
2023/02/01 02:19:45;;;;;;;0.60;0.60;;;;;;;1.94;93.16;97480.88;29373;218;63005;-56
2023/02/01 02:21:10;;;;;;;0.60;0.60;;;;;;;1.98;93.14;97474.03;29373;348;63009;-57
2023/02/01 02:22:39;;;;;;;0.60;0.60;;;;;;;1.98;92.88;97481.25;29373;231;63004;-57
2023/02/01 02:23:56;;;;;;;0.60;0.60;;;;;;;1.93;93.34;97468.53;29371;199;64013;-56
2023/02/01 02:25:16;;;;;;;0.60;0.60;;;;;;;1.91;93.52;97473.31;29373;197;63005;-56
2023/02/01 02:26:27;;;;;;;0.60;0.60;;;;;;;1.98;93.44;97466.03;29373;293;63009;-56
2023/02/01 02:27:26;;;;;;;0.60;0.60;;;;;;;2.04;92.91;97466.16;29373;205;63005;-57
2023/02/01 02:28:45;;;;;;;0.60;0.60;;;;;;;2.19;91.91;97461.22;29371;210;64013;-57
2023/02/01 02:29:52;;;;;;;0.60;0.60;;;;;;;2.10;91.98;97459.88;29373;288;63004;-56
2023/02/01 02:31:06;;;;;;;0.60;0.60;;;;;;;2.06;92.47;97464.91;29373;196;63004;-57
2023/02/01 02:32:31;;;;;;;0.60;0.60;;;;;;;2.06;92.81;97464.09;29373;235;63005;-57
2023/02/01 02:33:46;;;;;;;0.60;0.60;;;;;;;2.07;92.38;97460.38;29371;199;64014;-56
2023/02/01 02:34:44;;;;;;;0.60;0.60;;;;;;;2.08;92.50;97451.28;29373;282;63009;-57
2023/02/01 02:35:47;;;;;;;0.60;0.60;;;;;;;2.16;92.12;97453.63;29373;356;63005;-57
2023/02/01 02:36:44;;;;;;;;;;;;;;;2.22;92.12;97455.41;29973;983;29004;-57
2023/02/01 02:37:54;;;;;;;0.60;0.60;;;;;;;2.17;91.81;97456.09;29400;255;63013;-56
2023/02/01 02:38:42;;;;;;;0.60;0.60;;;;;;;2.18;91.67;97459.59;29371;294;64008;-56
2023/02/01 02:39:54;;;;;;;0.60;0.60;;;;;;;2.14;91.71;97456.53;29373;324;63009;-67
2023/02/01 02:40:40;;;;;;;0.60;0.60;;;;;;;2.17;92.08;97457.94;29395;204;63009;-58
2023/02/01 02:48:15;;;;;;;0.60;0.60;;;;;;;2.19;91.66;97451.34;29373;212;63009;-56
2023/02/01 02:48:59;;;;;;;0.60;0.60;;;;;;;2.17;91.66;97455.28;29393;267;64009;-57
2023/02/01 02:49:42;;;;;;;0.60;0.60;;;;;;;2.15;91.97;97446.66;29395;233;63009;-57
2023/02/01 02:54:48;;;;;;;0.60;0.60;;;;;;;2.23;91.91;97454.38;29395;315;63009;-56
2023/02/01 02:55:21;;;;;;;0.60;0.60;;;;;;;2.18;92.24;97447.00;29373;196;63005;-57
2023/02/01 03:04:27;;;;;;;0.70;0.70;;;;;;;2.42;91.57;97439.91;29417;196;63009;-57
2023/02/01 03:04:59;;;;;;;0.60;0.60;;;;;;;2.40;91.81;97450.03;29395;198;63009;-57
2023/02/01 03:05:35;;;;;;;0.60;0.60;;;;;;;2.34;91.92;97438.38;29371;334;64004;-57
2023/02/01 03:06:15;;;;;;;0.70;0.70;;;;;;;2.40;92.01;97439.31;29373;233;63004;-71
2023/02/01 03:06:49;;;;;;;0.60;0.60;;;;;;;2.39;92.15;97444.91;29417;196;63004;-56
2023/02/01 03:07:57;;;;;;;0.60;0.60;;;;;;;2.40;92.22;97443.88;29395;272;63004;-71
2023/02/01 03:08:30;;;;;;;0.60;0.60;;;;;;;2.30;92.54;97441.72;29373;362;63004;-69
2023/02/01 03:09:07;;;;;;;0.60;0.60;;;;;;;2.28;92.54;97446.50;29373;310;63008;-56
2023/02/01 03:09:41;;;;;;;0.60;0.60;;;;;;;2.24;92.82;97447.97;29373;287;63005;-57
2023/02/01 03:10:59;;;;;;;0.60;0.60;;;;;;;2.16;93.07;97445.59;29371;234;64014;-56
2023/02/01 03:13:46;;;;;;;0.60;0.60;;;;;;;2.13;93.66;97454.09;29373;282;63005;-56
2023/02/01 03:14:26;;;;;;;0.60;0.60;;;;;;;2.09;94.34;97451.03;29373;209;63009;-58
2023/02/01 03:15:08;;;;;;;0.60;0.60;;;;;;;2.08;94.20;97448.63;29373;295;63004;-57
2023/02/01 03:15:56;;;;;;;0.60;0.60;;;;;;;2.09;94.23;97450.22;29371;256;64013;-57
2023/02/01 03:16:51;;;;;;;0.60;0.60;;;;;;;2.08;94.50;97440.59;29373;260;63004;-57
2023/02/01 03:17:33;;;;;;;0.60;0.60;;;;;;;2.13;94.40;97438.03;29373;271;63019;-58
2023/02/01 03:18:12;;;;;;;0.60;0.60;;;;;;;2.16;93.95;97441.06;29395;210;63005;-57
2023/02/01 03:19:05;;;;;;;0.60;0.60;;;;;;;2.20;93.98;97438.75;29395;267;63009;-56
2023/02/01 03:19:48;;;;;;;0.60;0.60;;;;;;;2.20;93.55;97438.75;29373;236;63005;-57
2023/02/01 03:20:22;;;;;;;;;;;;;;;2.16;93.67;97443.75;29974;983;28000;-57
2023/02/01 03:20:55;;;;;;;0.60;0.60;;;;;;;2.13;93.96;97448.72;29399;236;64013;-57
2023/02/01 03:21:45;;;;;;;0.60;0.60;;;;;;;2.10;94.36;97449.19;29373;218;63004;-57
2023/02/01 03:22:27;;;;;;;0.60;0.60;;;;;;;2.05;94.81;97441.03;29395;211;63009;-57
2023/02/01 03:23:00;;;;;;;0.60;0.60;;;;;;;2.03;94.68;97441.25;29395;226;63004;-57
2023/02/01 03:23:36;;;;;;;0.60;0.60;;;;;;;2.05;95.08;97443.72;29395;197;63008;-57
2023/02/01 03:24:32;;;;;;;0.60;0.60;;;;;;;2.03;95.10;97449.28;29395;226;63004;-57
2023/02/01 03:25:19;;;;;;;0.60;0.60;;;;;;;2.01;95.03;97441.47;29373;225;63009;-57
2023/02/01 03:25:55;;;;;;;0.60;0.60;;;;;;;2.00;95.20;97445.19;29373;204;63007;-56
2023/02/01 03:26:30;;;;;;;0.60;0.60;;;;;;;1.98;95.20;97433.91;29394;293;64013;-57
2023/02/01 03:27:12;;;;;;;0.60;0.60;;;;;;;1.97;95.62;97445.66;29373;245;63005;-57
2023/02/01 03:28:07;;;;;;;0.60;0.60;;;;;;;2.00;95.50;97439.84;29395;209;63009;-57
2023/02/01 03:28:43;;;;;;;0.60;0.60;;;;;;;2.04;95.21;97444.75;29373;230;63004;-57
2023/02/01 03:29:21;;;;;;;0.60;0.60;;;;;;;2.06;94.92;97442.66;29373;261;63009;-68
2023/02/01 03:30:25;;;;;;;0.60;0.60;;;;;;;2.11;94.98;97437.44;29371;197;64009;-57
2023/02/01 03:30:58;;;;;;;0.60;0.60;;;;;;;2.11;94.73;97434.75;29373;227;63008;-56
2023/02/01 03:31:29;;;;;;;0.60;0.60;;;;;;;2.09;94.54;97431.47;29373;299;63001;-57
2023/02/01 03:32:01;;;;;;;0.60;0.60;;;;;;;2.08;94.86;97427.19;29373;235;63015;-59
2023/02/01 03:32:58;;;;;;;0.60;0.60;;;;;;;2.09;94.87;97423.44;29373;311;63005;-56
2023/02/01 03:33:29;;;;;;;0.60;0.60;;;;;;;2.07;95.17;97420.22;29371;244;64013;-57
2023/02/01 03:34:03;;;;;;;0.60;0.60;;;;;;;2.05;94.94;97423.13;29373;219;63005;-57